createdAt,value
2022-12-24T00:00:31.802Z,96727.06
2022-12-24T00:04:34.484Z,96739.97
2022-12-24T00:08:37.388Z,96746.66
2022-12-24T00:12:41.469Z,96761.56
2022-12-24T00:16:44.157Z,96743.13
2022-12-24T00:20:48.076Z,96749.88
2022-12-24T00:24:50.706Z,96774.53
2022-12-24T00:28:54.722Z,96723.34
2022-12-24T00:32:57.369Z,96739.53
2022-12-24T00:37:00.013Z,96737.19
2022-12-24T00:41:03.321Z,96755.25
2022-12-24T00:45:08.411Z,96757.44
2022-12-24T00:49:12.510Z,96769.28
2022-12-24T00:53:15.208Z,96767.84
2022-12-24T00:57:17.852Z,96775.59
2022-12-24T01:01:22.445Z,96796.03
2022-12-24T01:05:25.239Z,96786.31
2022-12-24T01:09:27.826Z,96786.75
2022-12-24T01:13:30.565Z,96790.72
2022-12-24T01:17:35.330Z,96782.84
2022-12-24T01:21:38.004Z,96765.06
2022-12-24T01:25:40.795Z,96784.13
2022-12-24T01:29:43.432Z,96795.78
2022-12-24T01:33:48.177Z,96815.13
2022-12-24T01:37:50.872Z,96814.78
2022-12-24T01:42:11.148Z,96833.50
2022-12-24T01:46:18.160Z,96840.78
2022-12-24T01:50:22.214Z,96852.66
2022-12-24T01:54:29.943Z,96860.28
2022-12-24T01:58:35.247Z,96863.56
2022-12-24T02:02:41.187Z,96860.53
2022-12-24T02:06:45.272Z,96869.28
2022-12-24T02:10:49.111Z,96860.47
2022-12-24T02:14:51.978Z,96859.84
2022-12-24T02:19:01.248Z,96885.78
2022-12-24T02:23:21.907Z,96890.22
2022-12-24T02:27:34.134Z,96886.06
2022-12-24T02:31:42.347Z,96883.97
2022-12-24T02:35:51.909Z,96888.94
2022-12-24T02:39:59.768Z,96878.97
2022-12-24T02:44:02.970Z,96886.25
2022-12-24T02:48:08.739Z,96894.97
2022-12-24T02:52:29.504Z,96898.75
2022-12-24T02:56:56.042Z,96915.16
2022-12-24T03:01:17.540Z,96925.56
2022-12-24T03:05:30.949Z,96921.41
2022-12-24T03:09:40.523Z,96922.06
2022-12-24T03:13:44.206Z,96905.72
2022-12-24T03:17:50.364Z,96921.06
2022-12-24T03:21:57.823Z,96936.59
2022-12-24T03:26:02.912Z,96943.25
2022-12-24T03:30:10.293Z,96942.84
2022-12-24T03:34:13.808Z,96948.63
2022-12-24T03:38:17.874Z,96948.41
2022-12-24T03:42:20.568Z,96951.50
2022-12-24T03:46:23.264Z,96957.34
2022-12-24T03:50:25.903Z,96971.00
2022-12-24T03:54:30.031Z,96974.72
2022-12-24T03:58:32.611Z,96963.97
2022-12-24T04:02:35.467Z,96973.91
2022-12-24T04:06:38.171Z,96978.44
2022-12-24T04:10:42.254Z,96992.94
2022-12-24T04:14:44.894Z,96987.53
2022-12-24T04:18:47.525Z,97006.78
2022-12-24T04:22:50.142Z,97004.09
2022-12-24T04:26:54.126Z,97006.97
2022-12-24T04:30:59.654Z,97009.47
2022-12-24T04:35:02.273Z,97003.69
2022-12-24T04:39:05.048Z,97016.53
2022-12-24T04:43:09.062Z,97012.81
2022-12-24T04:47:11.812Z,97023.56
2022-12-24T04:51:15.765Z,97017.75
2022-12-24T04:55:18.619Z,97038.44
2022-12-24T04:59:22.601Z,97041.56
2022-12-24T05:03:25.355Z,97042.56
2022-12-24T05:07:28.103Z,97061.22
2022-12-24T05:11:31.708Z,97065.16
2022-12-24T05:15:35.721Z,97063.28
2022-12-24T05:19:38.510Z,97070.53
2022-12-24T05:23:58.926Z,97063.06
2022-12-24T05:28:01.736Z,97058.94
2022-12-24T05:32:06.038Z,97075.47
2022-12-24T05:36:09.771Z,97065.34
2022-12-24T05:40:12.782Z,97076.09
2022-12-24T05:44:16.509Z,97089.34
2022-12-24T05:48:20.527Z,97093.88
2022-12-24T05:52:23.127Z,97103.44
2022-12-24T05:56:26.500Z,97108.38
2022-12-24T06:00:29.987Z,97119.09
2022-12-24T06:04:34.103Z,97125.72
2022-12-24T06:08:38.200Z,97128.41
2022-12-24T06:12:40.821Z,97132.28
2022-12-24T06:16:43.477Z,97129.16
2022-12-24T06:20:47.482Z,97133.72
2022-12-24T06:24:50.151Z,97128.16
2022-12-24T06:28:53.062Z,97128.97
2022-12-24T06:32:55.684Z,97125.66
2022-12-24T06:36:59.720Z,97139.53
2022-12-24T06:41:06.491Z,97149.28
2022-12-24T06:45:10.484Z,97144.09
2022-12-24T06:49:13.132Z,97158.78
2022-12-24T06:53:17.109Z,97157.75
2022-12-24T06:57:19.721Z,97157.34
2022-12-24T07:01:24.293Z,97161.03
2022-12-24T07:05:27.748Z,97166.16
2022-12-24T07:09:32.318Z,97166.53
2022-12-24T07:13:34.977Z,97166.34
2022-12-24T07:17:37.735Z,97184.53
2022-12-24T07:21:40.539Z,97186.13
2022-12-24T07:25:44.678Z,97199.56
2022-12-24T07:29:48.322Z,97202.66
2022-12-24T07:33:51.390Z,97214.25
2022-12-24T07:37:54.010Z,97219.63
2022-12-24T07:41:57.954Z,97226.84
2022-12-24T07:46:00.702Z,97227.28
2022-12-24T07:50:03.444Z,97224.59
2022-12-24T07:54:06.237Z,97225.72
2022-12-24T07:58:10.191Z,97233.97
2022-12-24T08:02:18.269Z,97249.56
2022-12-24T08:06:21.518Z,97234.66
2022-12-24T08:10:24.233Z,97236.59
2022-12-24T08:14:28.248Z,97237.72
2022-12-24T08:18:30.863Z,97234.75
2022-12-24T08:22:33.540Z,97246.13
2022-12-24T08:26:36.165Z,97242.78
2022-12-24T08:30:40.509Z,97240.28
2022-12-24T08:34:43.171Z,97249.44
2022-12-24T08:38:45.809Z,97254.06
2022-12-24T08:42:48.647Z,97249.53
2022-12-24T08:46:52.696Z,97245.19
2022-12-24T08:50:55.314Z,97265.09
2022-12-24T08:54:58.001Z,97267.38
2022-12-24T08:59:00.660Z,97280.81
2022-12-24T09:03:05.032Z,97288.28
2022-12-24T09:07:08.099Z,97295.72
2022-12-24T09:11:13.366Z,97304.59
2022-12-24T09:15:16.749Z,97308.78
2022-12-24T09:19:20.758Z,97316.44
2022-12-24T09:23:23.465Z,97322.25
2022-12-24T09:27:26.093Z,97327.25
2022-12-24T09:31:29.300Z,97329.97
2022-12-24T09:35:33.400Z,97327.28
2022-12-24T09:39:36.111Z,97332.06
2022-12-24T09:43:39.543Z,97335.81
2022-12-24T09:47:47.900Z,97350.78
2022-12-24T09:51:55.342Z,97354.09
2022-12-24T09:56:00.442Z,97347.09
2022-12-24T10:00:04.020Z,97352.91
2022-12-24T10:04:13.451Z,97359.56
2022-12-24T10:08:24.763Z,97360.06
2022-12-24T10:12:35.887Z,97350.59
2022-12-24T10:16:49.533Z,97356.81
2022-12-24T10:21:00.127Z,97353.13
2022-12-24T10:25:14.943Z,97358.53
2022-12-24T10:29:20.879Z,97356.88
2022-12-24T10:33:32.315Z,97359.63
2022-12-24T10:37:35.582Z,97361.28
2022-12-24T10:41:40.123Z,97357.50
2022-12-24T10:45:47.161Z,97364.66
2022-12-24T10:49:55.217Z,97356.56
2022-12-24T10:54:02.649Z,97366.22
2022-12-24T10:58:14.055Z,97355.31
2022-12-24T11:02:28.205Z,97362.69
2022-12-24T11:06:31.143Z,97353.63
2022-12-24T11:10:37.001Z,97341.78
2022-12-24T11:14:41.148Z,97354.50
2022-12-24T11:18:51.175Z,97353.53
2022-12-24T11:22:54.728Z,97354.59
2022-12-24T11:27:25.426Z,97357.97
2022-12-24T11:31:32.945Z,97355.50
2022-12-24T11:35:41.767Z,97339.38
2022-12-24T11:39:48.543Z,97342.28
2022-12-24T11:43:52.985Z,97336.47
2022-12-24T11:47:57.632Z,97354.91
2022-12-24T11:52:13.815Z,97335.56
2022-12-24T11:56:25.595Z,97341.22
2022-12-24T12:00:29.294Z,97345.53
2022-12-24T12:04:36.860Z,97350.88
2022-12-24T12:08:41.463Z,97333.78
2022-12-24T12:12:47.507Z,97344.34
2022-12-24T12:17:03.669Z,97334.53
2022-12-24T12:21:12.964Z,97342.28
2022-12-24T12:25:23.483Z,97348.75
2022-12-24T12:29:31.110Z,97355.31
2022-12-24T12:33:40.444Z,97353.88
2022-12-24T12:37:48.165Z,97361.69
2022-12-24T12:42:00.163Z,97366.94
2022-12-24T12:46:11.125Z,97362.59
2022-12-24T12:50:21.215Z,97361.19
2022-12-24T12:54:38.902Z,97373.50
2022-12-24T12:58:48.227Z,97369.16
2022-12-24T13:03:10.570Z,97378.72
2022-12-24T13:07:52.018Z,97376.06
2022-12-24T13:12:08.013Z,97382.09
2022-12-24T13:16:33.610Z,97376.06
2022-12-24T13:20:43.613Z,97370.19
2022-12-24T13:24:52.213Z,97370.97
2022-12-24T13:28:56.549Z,97382.78
2022-12-24T13:32:59.204Z,97388.75
2022-12-24T13:37:20.976Z,97398.81
2022-12-24T13:41:54.932Z,97407.94
2022-12-24T13:45:59.075Z,97417.81
2022-12-24T13:50:22.176Z,97410.72
2022-12-24T13:54:28.603Z,97415.22
2022-12-24T13:58:32.091Z,97433.00
2022-12-24T14:02:40.465Z,97430.53
2022-12-24T14:06:43.585Z,97420.47
2022-12-24T14:11:00.569Z,97425.91
2022-12-24T14:15:36.338Z,97433.47
2022-12-24T14:19:43.551Z,97426.19
2022-12-24T14:23:54.104Z,97426.22
2022-12-24T14:28:00.915Z,97439.31
2022-12-24T14:32:13.599Z,97440.56
2022-12-24T14:36:21.280Z,97437.28
2022-12-24T14:40:29.077Z,97441.84
2022-12-24T14:44:41.249Z,97431.03
2022-12-24T14:48:51.354Z,97445.59
2022-12-24T14:53:07.171Z,97448.47
2022-12-24T14:57:29.735Z,97460.13
2022-12-24T15:01:34.410Z,97468.59
2022-12-24T15:05:37.301Z,97468.81
2022-12-24T15:09:43.601Z,97477.53
2022-12-24T15:13:49.202Z,97486.06
2022-12-24T15:17:52.461Z,97485.44
2022-12-24T15:21:56.049Z,97490.19
2022-12-24T15:26:27.895Z,97477.94
2022-12-24T15:30:32.237Z,97476.91
2022-12-24T15:34:38.144Z,97479.38
2022-12-24T15:38:43.559Z,97473.13
2022-12-24T15:42:47.633Z,97471.31
2022-12-24T15:46:50.287Z,97475.25
2022-12-24T15:50:55.740Z,97474.84
2022-12-24T15:54:58.666Z,97469.03
2022-12-24T15:59:35.825Z,97473.97
2022-12-24T16:03:40.326Z,97477.06
2022-12-24T16:07:56.963Z,97488.19
2022-12-24T16:12:03.430Z,97492.06
2022-12-24T16:16:12.433Z,97493.69
2022-12-24T16:20:19.395Z,97497.56
2022-12-24T16:24:25.016Z,97496.06
2022-12-24T16:28:27.636Z,97504.66
2022-12-24T16:32:34.689Z,97517.41
2022-12-24T16:36:37.297Z,97521.03
2022-12-24T16:40:40.108Z,97518.09
2022-12-24T16:44:43.504Z,97521.56
2022-12-24T16:48:49.533Z,97522.59
2022-12-24T16:52:52.142Z,97532.09
2022-12-24T16:56:54.723Z,97534.78
2022-12-24T17:00:58.707Z,97543.06
2022-12-24T17:05:02.734Z,97544.94
2022-12-24T17:09:06.088Z,97559.03
2022-12-24T17:13:08.818Z,97556.09
2022-12-24T17:17:20.777Z,97564.00
2022-12-24T17:21:25.031Z,97558.81
2022-12-24T17:25:27.710Z,97562.72
2022-12-24T17:29:30.329Z,97573.50
2022-12-24T17:33:33.018Z,97568.69
2022-12-24T17:37:37.623Z,97579.28
2022-12-24T17:41:40.299Z,97578.41
2022-12-24T17:45:43.130Z,97570.94
2022-12-24T17:49:45.969Z,97571.13
2022-12-24T17:53:50.523Z,97563.00
2022-12-24T17:57:53.152Z,97571.63
2022-12-24T18:01:55.956Z,97572.03
2022-12-24T18:06:05.232Z,97574.06
2022-12-24T18:10:11.179Z,97577.59
2022-12-24T18:14:15.378Z,97586.13
2022-12-24T18:18:18.033Z,97579.06
2022-12-24T18:22:20.710Z,97579.91
2022-12-24T18:26:26.204Z,97592.19
2022-12-24T18:30:29.005Z,97589.72
2022-12-24T18:34:31.788Z,97598.81
2022-12-24T18:38:34.660Z,97615.13
2022-12-24T18:42:41.440Z,97613.84
2022-12-24T18:46:44.163Z,97610.53
2022-12-24T18:50:55.666Z,97617.78
2022-12-24T18:54:58.312Z,97621.66
2022-12-24T18:59:03.693Z,97621.22
2022-12-24T19:03:06.457Z,97626.16
2022-12-24T19:07:09.188Z,97623.28
2022-12-24T19:11:11.825Z,97611.00
2022-12-24T19:15:16.021Z,97617.63
2022-12-24T19:19:23.860Z,97614.94
2022-12-24T19:23:26.528Z,97623.19
2022-12-24T19:27:29.158Z,97635.63
2022-12-24T19:31:33.228Z,97631.91
2022-12-24T19:35:35.994Z,97644.34
2022-12-24T19:39:38.629Z,97639.31
2022-12-24T19:43:43.420Z,97627.91
2022-12-24T19:47:47.595Z,97620.25
2022-12-24T19:51:50.310Z,97624.53
2022-12-24T19:55:52.914Z,97614.78
2022-12-24T19:59:55.550Z,97614.94
2022-12-24T20:04:00.346Z,97610.34
2022-12-24T20:08:02.977Z,97621.72
2022-12-24T20:12:06.060Z,97635.81
2022-12-24T20:16:11.956Z,97633.13
2022-12-24T20:20:16.066Z,97628.63
2022-12-24T20:24:18.759Z,97620.53
2022-12-24T20:28:21.380Z,97633.78
2022-12-24T20:32:24.170Z,97640.38
2022-12-24T20:36:30.206Z,97648.63
2022-12-24T20:40:32.868Z,97650.84
2022-12-24T20:44:35.452Z,97669.88
2022-12-24T20:48:38.274Z,97650.03
2022-12-24T20:52:42.382Z,97655.88
2022-12-24T20:56:45.048Z,97659.78
2022-12-24T21:01:00.509Z,97664.13
2022-12-24T21:05:03.883Z,97656.06
2022-12-24T21:09:07.967Z,97665.81
2022-12-24T21:13:10.659Z,97664.97
2022-12-24T21:17:15.928Z,97668.09
2022-12-24T21:21:18.886Z,97658.09
2022-12-24T21:25:23.386Z,97660.78
2022-12-24T21:29:26.131Z,97667.84
2022-12-24T21:33:33.320Z,97667.84
2022-12-24T21:37:39.429Z,97670.34
2022-12-24T21:41:43.452Z,97661.44
2022-12-24T21:45:49.764Z,97666.16
2022-12-24T21:50:09.861Z,97670.53
2022-12-24T21:54:26.899Z,97685.81
2022-12-24T21:58:30.951Z,97685.00
2022-12-24T22:02:33.703Z,97681.66
2022-12-24T22:06:53.402Z,97676.28
2022-12-24T22:11:13.771Z,97683.69
2022-12-24T22:15:17.976Z,97674.97
2022-12-24T22:19:20.776Z,97670.91
2022-12-24T22:23:23.405Z,97674.63
2022-12-24T22:27:26.084Z,97677.31
2022-12-24T22:31:30.298Z,97673.31
2022-12-24T22:35:33.625Z,97672.47
2022-12-24T22:39:36.261Z,97676.84
2022-12-24T22:43:39.160Z,97672.00
2022-12-24T22:47:43.137Z,97675.16
2022-12-24T22:51:45.767Z,97683.44
2022-12-24T22:55:56.062Z,97667.00
2022-12-24T22:59:58.761Z,97664.31
2022-12-24T23:04:03.202Z,97667.38
2022-12-24T23:08:07.353Z,97684.72
2022-12-24T23:12:10.030Z,97679.06
2022-12-24T23:16:11.736Z,97680.09
2022-12-24T23:20:15.755Z,97689.81
2022-12-24T23:24:18.412Z,97675.34
2022-12-24T23:28:21.021Z,97684.06
2022-12-24T23:32:23.845Z,97677.41
2022-12-24T23:36:27.816Z,97671.00
2022-12-24T23:40:30.452Z,97664.78
2022-12-24T23:44:33.100Z,97678.41
2022-12-24T23:48:35.699Z,97672.19
2022-12-24T23:52:39.671Z,97665.34
2022-12-24T23:56:42.315Z,97680.66
